Mv.shannon — PNFN — position and weather

sailwx.info

Track history (hours):
 
Tides and Currents Weather Stations Pressure Air Temp Water Temp Dewpoint Dewpoint Depression Visibility Wind Speed Wind Dir Waves Ship Positions

Mv.shannon

Last reported at 2018-Aug-19 01:02 UTC. Time now 2018-Aug-21 03:57 UTC.
Position S 06°56' E 112°43'.

Length 83 m; draft 3.9 m.

Type: Cargo ship. MMSI: 525019530.

Date/timePositionNaut miles runAvg speedWind from/ knotsBaromVisibWave heightAir tempDewpointWater temp
2018-Aug-19 01:02S 06°56' E 112°43'1 9.6
2018-Aug-19 00:56S 06°57' E 112°43'4 9.5
2018-Aug-19 00:28S 07°01' E 112°41'510.0
2018-Aug-18 23:59S 07°06' E 112°39'3 4.4
2018-Aug-18 23:24S 07°08' E 112°39'  
2018-Aug-14 08:50S 07°08' E 112°39'1 1.6
2018-Aug-14 08:29S 07°08' E 112°40'0 0.4
2018-Aug-14 07:54S 07°08' E 112°40'0 0.0
2018-Aug-14 07:30S 07°08' E 112°40'0 0.0
2018-Aug-14 07:00S 07°08' E 112°40'0 0.0
2018-Aug-14 06:30S 07°08' E 112°40'0 0.0
2018-Aug-14 06:00S 07°08' E 112°40'0 0.0
2018-Aug-14 05:30S 07°08' E 112°40'0 0.0
2018-Aug-14 04:59S 07°08' E 112°40'0 0.1
2018-Aug-14 04:25S 07°08' E 112°40'0 0.0
2018-Aug-14 04:00S 07°08' E 112°40'0 0.0
2018-Aug-14 03:29S 07°08' E 112°40'0 0.1
2018-Aug-14 02:59S 07°08' E 112°40'0 0.1
2018-Aug-14 02:27S 07°08' E 112°40'0 0.1
2018-Aug-14 01:59S 07°08' E 112°40'0 0.0
2018-Aug-13 18:25S 07°08' E 112°40'0 0.0
2018-Aug-13 17:55S 07°08' E 112°40'0 0.0
2018-Aug-13 17:28S 07°08' E 112°40'0 0.0
2018-Aug-13 16:59S 07°08' E 112°40'0 0.0
2018-Aug-13 16:29S 07°08' E 112°40'0 0.1
2018-Aug-13 15:58S 07°08' E 112°40'0 0.0
2018-Aug-13 15:29S 07°08' E 112°40'0 0.0
2018-Aug-13 15:00S 07°08' E 112°40'0 0.1
2018-Aug-13 14:29S 07°08' E 112°40'0 0.1
2018-Aug-13 13:59S 07°08' E 112°40'0 0.1
2018-Aug-13 13:30S 07°08' E 112°40'4 8.8
2018-Aug-13 13:00S 07°04' E 112°40'611.1
2018-Aug-13 12:29S 06°58' E 112°42'710.3
2018-Aug-13 11:51S 06°52' E 112°45'2 1.5
2018-Aug-13 10:47S 06°52' E 112°46'0 0.0
2018-Aug-13 10:30S 06°52' E 112°46'0 0.0
2018-Aug-13 09:57S 06°52' E 112°46'0 0.0
2018-Aug-13 09:30S 06°52' E 112°46'0 0.0
2018-Aug-13 08:55S 06°52' E 112°46'0 0.0
2018-Aug-13 08:22S 06°52' E 112°46'0 0.0
2018-Aug-13 07:52S 06°52' E 112°46'0 0.0
2018-Aug-13 07:27S 06°52' E 112°46'0 0.0
2018-Aug-13 06:55S 06°52' E 112°46'0 0.0
2018-Aug-13 06:22S 06°52' E 112°46'0 0.0
2018-Aug-13 05:52S 06°52' E 112°46'0 0.0
2018-Aug-13 05:27S 06°52' E 112°46'0 0.0
2018-Aug-13 05:00S 06°52' E 112°46'0 0.0
2018-Aug-13 04:30S 06°52' E 112°46'0 0.0
2018-Aug-13 03:59S 06°52' E 112°46'0 0.0
2018-Aug-13 03:26S 06°52' E 112°46'0 0.0
2018-Aug-13 02:53S 06°52' E 112°46'0 0.0
2018-Aug-13 02:27S 06°52' E 112°46'0 0.0
2018-Aug-13 01:57S 06°52' E 112°46'0 0.0
2018-Aug-13 01:15S 06°52' E 112°46'0 0.0
2018-Aug-13 00:41S 06°52' E 112°46'0 0.0
2018-Aug-13 00:28S 06°52' E 112°46'0 0.0
2018-Aug-12 23:57S 06°52' E 112°46'0 0.0
2018-Aug-12 23:28S 06°52' E 112°46'0 0.0
2018-Aug-12 22:51S 06°52' E 112°46'0 0.0
2018-Aug-12 22:28S 06°52' E 112°46'0 0.0
2018-Aug-12 21:49S 06°52' E 112°46'0 0.0
2018-Aug-12 21:24S 06°52' E 112°46'0 0.0
2018-Aug-12 20:49S 06°52' E 112°46'0 0.0
2018-Aug-12 20:19S 06°52' E 112°46'0 0.0
2018-Aug-12 19:50S 06°52' E 112°46'0 0.0
2018-Aug-12 19:28S 06°52' E 112°46'0 0.0
2018-Aug-12 18:54S 06°52' E 112°46'0 0.0
2018-Aug-12 18:30S 06°52' E 112°46'0 0.0
2018-Aug-12 17:50S 06°52' E 112°46'0 0.0
2018-Aug-12 17:21S 06°52' E 112°46'0 0.0
2018-Aug-12 17:00S 06°52' E 112°46'1 2.1
2018-Aug-12 16:30S 06°51' E 112°47'  
Track history (hours):
 
Tides and Currents Weather Stations Pressure Air Temp Water Temp Dewpoint Dewpoint Depression Visibility Wind Speed Wind Dir Waves Ship Positions

Mv.shannon

Last reported at 2018-Aug-19 01:02 UTC. Time now 2018-Aug-21 03:57 UTC.
Position S 06°56' E 112°43'.

Length 83 m; draft 3.9 m.

Type: Cargo ship. MMSI: 525019530.

Date/timePositionNaut miles runAvg speedWind from/ knotsBaromVisibWave heightAir tempDewpointWater temp
2018-Aug-19 01:02S 06°56' E 112°43'1 9.6
2018-Aug-19 00:56S 06°57' E 112°43'4 9.5
2018-Aug-19 00:28S 07°01' E 112°41'510.0
2018-Aug-18 23:59S 07°06' E 112°39'3 4.4
2018-Aug-18 23:24S 07°08' E 112°39'  
2018-Aug-14 08:50S 07°08' E 112°39'1 1.6
2018-Aug-14 08:29S 07°08' E 112°40'0 0.4
2018-Aug-14 07:54S 07°08' E 112°40'0 0.0
2018-Aug-14 07:30S 07°08' E 112°40'0 0.0
2018-Aug-14 07:00S 07°08' E 112°40'0 0.0
2018-Aug-14 06:30S 07°08' E 112°40'0 0.0
2018-Aug-14 06:00S 07°08' E 112°40'0 0.0
2018-Aug-14 05:30S 07°08' E 112°40'0 0.0
2018-Aug-14 04:59S 07°08' E 112°40'0 0.1
2018-Aug-14 04:25S 07°08' E 112°40'0 0.0
2018-Aug-14 04:00S 07°08' E 112°40'0 0.0
2018-Aug-14 03:29S 07°08' E 112°40'0 0.1
2018-Aug-14 02:59S 07°08' E 112°40'0 0.1
2018-Aug-14 02:27S 07°08' E 112°40'0 0.1
2018-Aug-14 01:59S 07°08' E 112°40'0 0.0
2018-Aug-13 18:25S 07°08' E 112°40'0 0.0
2018-Aug-13 17:55S 07°08' E 112°40'0 0.0
2018-Aug-13 17:28S 07°08' E 112°40'0 0.0
2018-Aug-13 16:59S 07°08' E 112°40'0 0.0
2018-Aug-13 16:29S 07°08' E 112°40'0 0.1
2018-Aug-13 15:58S 07°08' E 112°40'0 0.0
2018-Aug-13 15:29S 07°08' E 112°40'0 0.0
2018-Aug-13 15:00S 07°08' E 112°40'0 0.1
2018-Aug-13 14:29S 07°08' E 112°40'0 0.1
2018-Aug-13 13:59S 07°08' E 112°40'0 0.1
2018-Aug-13 13:30S 07°08' E 112°40'4 8.8
2018-Aug-13 13:00S 07°04' E 112°40'611.1
2018-Aug-13 12:29S 06°58' E 112°42'710.3
2018-Aug-13 11:51S 06°52' E 112°45'2 1.5
2018-Aug-13 10:47S 06°52' E 112°46'0 0.0
2018-Aug-13 10:30S 06°52' E 112°46'0 0.0
2018-Aug-13 09:57S 06°52' E 112°46'0 0.0
2018-Aug-13 09:30S 06°52' E 112°46'0 0.0
2018-Aug-13 08:55S 06°52' E 112°46'0 0.0
2018-Aug-13 08:22S 06°52' E 112°46'0 0.0
2018-Aug-13 07:52S 06°52' E 112°46'0 0.0
2018-Aug-13 07:27S 06°52' E 112°46'0 0.0
2018-Aug-13 06:55S 06°52' E 112°46'0 0.0
2018-Aug-13 06:22S 06°52' E 112°46'0 0.0
2018-Aug-13 05:52S 06°52' E 112°46'0 0.0
2018-Aug-13 05:27S 06°52' E 112°46'0 0.0
2018-Aug-13 05:00S 06°52' E 112°46'0 0.0
2018-Aug-13 04:30S 06°52' E 112°46'0 0.0
2018-Aug-13 03:59S 06°52' E 112°46'0 0.0
2018-Aug-13 03:26S 06°52' E 112°46'0 0.0
2018-Aug-13 02:53S 06°52' E 112°46'0 0.0
2018-Aug-13 02:27S 06°52' E 112°46'0 0.0
2018-Aug-13 01:57S 06°52' E 112°46'0 0.0
2018-Aug-13 01:15S 06°52' E 112°46'0 0.0
2018-Aug-13 00:41S 06°52' E 112°46'0 0.0
2018-Aug-13 00:28S 06°52' E 112°46'0 0.0
2018-Aug-12 23:57S 06°52' E 112°46'0 0.0
2018-Aug-12 23:28S 06°52' E 112°46'0 0.0
2018-Aug-12 22:51S 06°52' E 112°46'0 0.0
2018-Aug-12 22:28S 06°52' E 112°46'0 0.0
2018-Aug-12 21:49S 06°52' E 112°46'0 0.0
2018-Aug-12 21:24S 06°52' E 112°46'0 0.0
2018-Aug-12 20:49S 06°52' E 112°46'0 0.0
2018-Aug-12 20:19S 06°52' E 112°46'0 0.0
2018-Aug-12 19:50S 06°52' E 112°46'0 0.0
2018-Aug-12 19:28S 06°52' E 112°46'0 0.0
2018-Aug-12 18:54S 06°52' E 112°46'0 0.0
2018-Aug-12 18:30S 06°52' E 112°46'0 0.0
2018-Aug-12 17:50S 06°52' E 112°46'0 0.0
2018-Aug-12 17:21S 06°52' E 112°46'0 0.0
2018-Aug-12 17:00S 06°52' E 112°46'1 2.1
2018-Aug-12 16:30S 06°51' E 112°47'  

Dump ship's entire track history